Time;durP1;ratioP1;P1;durP2;ratioP2;P2;SDS_P1;SDS_P2;PMS_P1;PMS_P2;Temp;Humidity;BMP_temperature;BMP_pressure;BME280_temperature;BME280_humidity;BME280_pressure;Samples;Min_cycle;Max_cycle;Signal;HPM_P1;HPM_P2
2022/07/24 00:00:55;;;;;;;9.50;5.00;;;;;;;18.52;100.00;99240.64;1730286;82;21564;-67
2022/07/24 00:03:22;;;;;;;9.65;4.37;;;;;;;18.47;100.00;99238.59;1731718;82;21126;-68
2022/07/24 00:05:49;;;;;;;6.15;4.20;;;;;;;18.41;100.00;99235.23;1701287;83;21292;-68
2022/07/24 00:08:15;;;;;;;9.20;4.03;;;;;;;18.38;100.00;99238.02;1703682;83;21112;-69
2022/07/24 00:10:42;;;;;;;8.57;4.30;;;;;;;18.39;100.00;99240.96;1704598;83;21575;-68
2022/07/24 00:13:09;;;;;;;5.15;4.53;;;;;;;18.39;100.00;99245.03;1696530;83;20901;-69
2022/07/24 00:15:36;;;;;;;11.45;5.55;;;;;;;18.40;100.00;99255.38;1720270;82;20945;-70
2022/07/24 00:18:05;;;;;;;9.48;5.55;;;;;;;18.35;100.00;99250.88;1714869;82;21528;-68
2022/07/24 00:20:31;;;;;;;7.15;5.10;;;;;;;18.33;100.00;99246.87;1698505;82;20998;-69
2022/07/24 00:22:58;;;;;;;5.47;4.90;;;;;;;18.31;100.00;99240.94;1715055;81;21002;-69
2022/07/24 00:25:25;;;;;;;8.55;5.28;;;;;;;18.28;100.00;99241.57;1727671;81;21506;-69
2022/07/24 00:27:52;;;;;;;7.72;4.80;;;;;;;18.25;100.00;99238.09;1724344;82;20983;-68
2022/07/24 00:30:19;;;;;;;5.92;4.33;;;;;;;18.23;100.00;99238.96;1718423;82;21235;-68
2022/07/24 00:32:46;;;;;;;9.00;4.22;;;;;;;18.21;100.00;99237.94;1718176;82;20927;-69
2022/07/24 00:35:13;;;;;;;5.87;4.47;;;;;;;18.14;100.00;99235.66;1716935;82;21098;-68
2022/07/24 00:37:41;;;;;;;7.30;4.53;;;;;;;18.12;100.00;99243.30;1719218;82;20875;-68
2022/07/24 00:40:10;;;;;;;6.83;5.37;;;;;;;18.10;100.00;99246.09;1717747;82;21409;-68
2022/07/24 00:42:38;;;;;;;5.90;5.05;;;;;;;18.05;100.00;99249.73;1713868;82;21500;-68
2022/07/24 00:45:07;;;;;;;8.00;4.45;;;;;;;18.00;100.00;99246.59;1719516;82;20967;-68
2022/07/24 00:47:33;;;;;;;7.35;4.35;;;;;;;17.99;100.00;99245.56;1715535;83;21162;-68
2022/07/24 00:50:00;;;;;;;8.18;4.33;;;;;;;17.97;100.00;99243.14;1729855;82;21071;-69
2022/07/24 00:52:27;;;;;;;6.20;4.45;;;;;;;17.94;100.00;99242.98;1707549;83;20992;-68
2022/07/24 00:54:53;;;;;;;6.05;4.05;;;;;;;17.94;100.00;99247.05;1707989;83;22079;-68
2022/07/24 00:57:21;;;;;;;7.53;3.77;;;;;;;17.94;100.00;99243.77;1722191;82;21046;-68
2022/07/24 00:59:48;;;;;;;5.65;4.22;;;;;;;17.97;100.00;99241.78;1726673;82;20980;-68
2022/07/24 01:02:15;;;;;;;10.48;4.42;;;;;;;17.97;100.00;99236.36;1721394;82;20957;-68
2022/07/24 01:04:42;;;;;;;4.17;3.85;;;;;;;17.93;100.00;99231.32;1726955;82;20939;-68
2022/07/24 01:07:08;;;;;;;7.10;3.98;;;;;;;17.89;100.00;99230.33;1727296;82;21261;-68
2022/07/24 01:09:35;;;;;;;8.23;4.40;;;;;;;17.89;100.00;99230.33;1721340;82;20860;-67
2022/07/24 01:12:04;;;;;;;5.00;4.05;;;;;;;17.87;100.00;99235.82;1686309;82;20945;-68
2022/07/24 01:14:33;;;;;;;11.83;4.35;;;;;;;17.84;100.00;99236.45;1708578;83;20890;-68
2022/07/24 01:17:00;;;;;;;5.92;4.15;;;;;;;17.82;100.00;99227.80;1720687;82;21010;-68
2022/07/24 01:19:27;;;;;;;7.05;4.05;;;;;;;17.77;100.00;99230.85;1731477;81;21239;-68
2022/07/24 01:21:54;;;;;;;8.80;4.28;;;;;;;17.76;100.00;99234.69;1729812;82;21082;-68
2022/07/24 01:24:21;;;;;;;6.87;3.85;;;;;;;17.74;100.00;99233.40;1710057;82;21037;-68
2022/07/24 01:26:48;;;;;;;8.58;4.60;;;;;;;17.70;100.00;99230.48;1694813;83;21082;-68
2022/07/24 01:29:15;;;;;;;8.75;4.17;;;;;;;17.67;100.00;99233.03;1711792;83;21116;-68
2022/07/24 01:31:42;;;;;;;10.95;4.53;;;;;;;17.64;100.00;99232.27;1696832;83;21261;-68
2022/07/24 01:34:09;;;;;;;7.10;3.77;;;;;;;17.57;100.00;99231.36;1696916;83;20882;-68
2022/07/24 01:36:35;;;;;;;4.87;3.98;;;;;;;17.51;100.00;99219.00;1717651;82;21001;-67
2022/07/24 01:39:03;;;;;;;7.50;4.03;;;;;;;17.47;100.00;99220.19;1723083;82;21470;-67
2022/07/24 01:41:30;;;;;;;6.22;4.03;;;;;;;17.44;100.00;99218.63;1716765;82;21207;-67
2022/07/24 01:43:57;;;;;;;9.00;4.08;;;;;;;17.42;100.00;99222.20;1712207;83;21161;-67
2022/07/24 01:46:23;;;;;;;5.50;3.90;;;;;;;17.41;100.00;99231.45;1707130;83;21061;-67
2022/07/24 01:48:50;;;;;;;6.92;4.08;;;;;;;17.41;100.00;99225.47;1719330;82;20907;-67
2022/07/24 01:51:18;;;;;;;4.65;4.25;;;;;;;17.41;100.00;99226.83;1717912;82;21625;-67
2022/07/24 01:53:45;;;;;;;6.37;4.00;;;;;;;17.38;100.00;99224.73;1725787;82;21033;-67
2022/07/24 01:56:12;;;;;;;16.30;4.20;;;;;;;17.37;100.00;99213.65;1716100;82;21251;-67
2022/07/24 01:58:39;;;;;;;5.70;4.83;;;;;;;17.36;100.00;99216.89;1718625;82;21476;-67
2022/07/24 02:01:07;;;;;;;6.78;4.22;;;;;;;17.33;100.00;99213.45;1718470;82;21040;-68
2022/07/24 02:03:35;;;;;;;8.43;4.60;;;;;;;17.33;100.00;99212.66;1723334;82;21051;-67
2022/07/24 02:06:02;;;;;;;7.17;4.17;;;;;;;17.34;100.00;99208.81;1720647;82;21389;-67
2022/07/24 02:08:29;;;;;;;5.53;4.20;;;;;;;17.35;100.00;99210.44;1692273;82;21169;-67
2022/07/24 02:10:56;;;;;;;6.33;3.87;;;;;;;17.33;100.00;99205.88;1714896;82;21093;-67
2022/07/24 02:13:25;;;;;;;4.90;3.83;;;;;;;17.32;100.00;99208.31;1716200;82;21029;-68
2022/07/24 02:15:53;;;;;;;4.50;4.10;;;;;;;17.32;100.00;99211.03;1723543;82;21533;-68
2022/07/24 02:18:19;;;;;;;7.60;4.35;;;;;;;17.29;100.00;99209.73;1716773;82;21123;-68
2022/07/24 02:20:46;;;;;;;9.30;4.60;;;;;;;17.27;100.00;99214.69;1705929;83;21238;-67
2022/07/24 02:23:17;;;;;;;6.55;4.40;;;;;;;17.24;100.00;99215.27;1699194;83;21006;-67
2022/07/24 02:25:41;;;;;;;4.97;4.28;;;;;;;17.30;100.00;99223.56;1705454;83;20950;-68
2022/07/24 02:28:08;;;;;;;4.85;4.15;;;;;;;17.31;100.00;99218.94;1715312;82;20923;-69
2022/07/24 02:30:36;;;;;;;7.40;4.22;;;;;;;17.27;100.00;99220.11;1718632;82;21019;-68
2022/07/24 02:33:03;;;;;;;6.03;4.08;;;;;;;17.23;100.00;99213.69;1725084;82;21777;-68
2022/07/24 02:35:30;;;;;;;5.17;4.37;;;;;;;17.16;100.00;99209.23;1716732;81;21041;-68
2022/07/24 02:37:58;;;;;;;5.35;3.98;;;;;;;17.10;100.00;99203.13;1724347;82;21026;-68
2022/07/24 02:40:26;;;;;;;;;;;;;;;17.03;100.00;99197.88;1715848;82;21547;-68
2022/07/24 02:42:53;;;;;;;7.28;4.30;;;;;;;16.99;100.00;99205.02;1722494;82;20099;-68
2022/07/24 02:45:19;;;;;;;10.60;4.37;;;;;;;16.96;100.00;99205.63;1721789;82;21263;-68
2022/07/24 02:47:55;;;;;;;7.90;4.53;;;;;;;16.95;100.00;99199.94;1723042;82;21005;-68
2022/07/24 02:50:24;;;;;;;5.80;4.42;;;;;;;16.97;100.00;99203.16;1705591;83;20964;-68
2022/07/24 02:52:51;;;;;;;6.85;3.75;;;;;;;17.06;100.00;99202.13;1698250;83;21077;-68
2022/07/24 02:55:18;;;;;;;7.55;4.37;;;;;;;17.20;100.00;99201.27;1710996;83;20926;-68
2022/07/24 02:57:45;;;;;;;15.63;5.30;;;;;;;17.35;100.00;99211.23;1709775;83;21324;-69
2022/07/24 03:00:14;;;;;;;4.80;4.40;;;;;;;17.55;100.00;99217.29;1686302;83;21078;-70
2022/07/24 03:02:43;;;;;;;5.47;4.10;;;;;;;17.67;100.00;99218.89;1723112;81;20924;-69
2022/07/24 03:05:11;;;;;;;6.53;4.60;;;;;;;17.69;100.00;99212.61;1724300;81;20947;-69
2022/07/24 03:07:37;;;;;;;7.22;3.72;;;;;;;17.76;100.00;99214.33;1719849;82;20991;-68
2022/07/24 03:10:07;;;;;;;4.85;3.65;;;;;;;17.92;100.00;99215.33;1725562;82;21302;-69
2022/07/24 03:12:34;;;;;;;7.55;3.65;;;;;;;18.04;100.00;99214.20;1728602;82;21081;-69
2022/07/24 03:15:01;;;;;;;5.08;3.67;;;;;;;18.16;100.00;99223.13;1726166;82;21013;-71
2022/07/24 03:17:27;;;;;;;7.92;3.80;;;;;;;18.27;100.00;99218.22;1713460;82;20993;-69
2022/07/24 03:19:55;;;;;;;5.22;4.05;;;;;;;18.35;100.00;99223.70;1714090;82;20981;-69
2022/07/24 03:22:22;;;;;;;3.58;3.25;;;;;;;18.43;100.00;99219.41;1713788;82;21250;-70
2022/07/24 03:24:50;;;;;;;7.75;4.20;;;;;;;18.48;100.00;99223.91;1722544;82;20943;-69
2022/07/24 03:27:17;;;;;;;7.12;3.72;;;;;;;18.53;100.00;99211.54;1719378;82;21493;-70
2022/07/24 03:29:45;;;;;;;7.67;3.92;;;;;;;18.58;100.00;99212.75;1717615;82;21029;-69
2022/07/24 03:32:12;;;;;;;7.92;3.47;;;;;;;18.66;100.00;99212.53;1716697;82;21346;-69
2022/07/24 03:34:38;;;;;;;8.23;4.00;;;;;;;18.62;100.00;99200.14;1724950;82;21932;-68
2022/07/24 03:37:05;;;;;;;12.35;4.42;;;;;;;18.54;100.00;99197.62;1727394;82;21559;-69
2022/07/24 03:39:32;;;;;;;8.83;4.10;;;;;;;18.42;100.00;99197.41;1697994;82;21688;-69
2022/07/24 03:41:58;;;;;;;4.30;3.90;;;;;;;18.36;100.00;99185.10;1718216;82;21133;-69
2022/07/24 03:44:25;;;;;;;10.28;4.47;;;;;;;18.25;100.00;99183.23;1716004;82;21026;-69
2022/07/24 03:46:52;;;;;;;6.58;4.30;;;;;;;18.14;100.00;99179.18;1720533;81;21261;-68
2022/07/24 03:49:20;;;;;;;9.93;4.80;;;;;;;18.13;100.00;99176.23;1720166;82;21537;-69
2022/07/24 03:51:47;;;;;;;8.53;4.33;;;;;;;18.11;100.00;99168.39;1712289;83;21073;-68
2022/07/24 03:54:14;;;;;;;7.10;4.20;;;;;;;18.10;100.00;99164.05;1714800;83;21356;-69
2022/07/24 03:56:42;;;;;;;5.90;4.25;;;;;;;18.09;100.00;99162.46;1724293;82;21613;-67
2022/07/24 03:59:09;;;;;;;4.55;4.12;;;;;;;18.09;100.00;99160.31;1713735;82;26991;-69
2022/07/24 04:01:35;;;;;;;4.65;4.15;;;;;;;18.06;100.00;99161.73;1722702;82;21559;-68
2022/07/24 04:04:07;;;;;;;5.05;4.05;;;;;;;18.08;100.00;99162.23;1695043;82;21012;-69
2022/07/24 04:06:34;;;;;;;11.35;4.95;;;;;;;18.09;100.00;99147.53;1729510;82;21030;-68
2022/07/24 04:09:03;;;;;;;6.90;4.90;;;;;;;18.10;100.00;99144.25;1720023;82;20970;-68
2022/07/24 04:11:31;;;;;;;6.97;4.25;;;;;;;18.12;100.00;99137.39;1717190;82;21208;-68
2022/07/24 04:13:59;;;;;;;;;;;;;;;18.16;100.00;99136.22;1707188;83;20856;-69
2022/07/24 04:16:26;;;;;;;7.03;4.60;;;;;;;18.19;100.00;99134.22;1679018;84;20465;-68
2022/07/24 04:18:53;;;;;;;15.50;5.53;;;;;;;18.25;100.00;99126.73;1707389;83;21132;-68
2022/07/24 04:21:20;;;;;;;6.22;4.33;;;;;;;18.31;100.00;99124.13;1697244;83;20942;-68
2022/07/24 04:23:46;;;;;;;7.85;4.67;;;;;;;18.40;100.00;99133.90;1718761;82;21212;-69
2022/07/24 04:26:14;;;;;;;11.33;5.07;;;;;;;18.57;100.00;99141.30;1706904;83;20891;-69
2022/07/24 04:28:41;;;;;;;15.20;4.95;;;;;;;18.82;100.00;99147.12;1707634;83;21061;-68
2022/07/24 04:31:09;;;;;;;14.45;4.60;;;;;;;19.18;100.00;99143.27;1710253;82;21050;-69
2022/07/24 04:33:35;;;;;;;14.35;4.50;;;;;;;20.12;100.00;99156.48;1712058;83;20922;-69
2022/07/24 04:36:04;;;;;;;13.32;5.03;;;;;;;20.12;100.00;99156.48;1697125;83;21176;-69
2022/07/24 04:38:34;;;;;;;14.63;4.70;;;;;;;20.64;100.00;99152.72;1712025;83;22233;-69
2022/07/24 04:41:01;;;;;;;9.60;4.10;;;;;;;21.08;100.00;99159.23;1718521;82;21433;-69
2022/07/24 04:43:28;;;;;;;9.40;4.05;;;;;;;21.32;100.00;99170.84;1719668;82;20891;-70
2022/07/24 04:45:55;;;;;;;8.85;3.75;;;;;;;21.45;100.00;99171.72;1722721;82;21078;-70
2022/07/24 04:48:21;;;;;;;8.75;4.17;;;;;;;21.65;100.00;99176.33;1723335;82;21405;-69
2022/07/24 04:50:48;;;;;;;7.53;4.20;;;;;;;21.96;100.00;99194.97;1690435;83;20934;-68
2022/07/24 04:53:15;;;;;;;53.02;6.45;;;;;;;22.26;100.00;99200.28;1681423;83;21072;-69
2022/07/24 04:55:42;;;;;;;9.48;4.15;;;;;;;22.85;95.34;99208.02;1706250;83;21547;-69
2022/07/24 04:58:09;;;;;;;15.80;4.93;;;;;;;22.77;90.93;99205.42;1713169;83;20937;-70
2022/07/24 05:00:36;;;;;;;7.25;4.12;;;;;;;23.02;87.70;99199.36;1715858;82;21297;-69
2022/07/24 05:03:03;;;;;;;10.13;4.70;;;;;;;22.69;91.33;99207.14;1721802;82;21102;-68
2022/07/24 05:05:29;;;;;;;9.65;4.15;;;;;;;22.42;97.01;99203.16;1716517;82;20998;-68
2022/07/24 05:07:58;;;;;;;11.97;4.22;;;;;;;22.89;93.46;99205.41;1721886;82;20959;-67
2022/07/24 05:10:26;;;;;;;15.68;5.87;;;;;;;23.32;90.45;99203.41;1727549;82;21438;-67
2022/07/24 05:12:53;;;;;;;14.23;6.33;;;;;;;23.36;87.78;99206.23;1723100;82;21310;-68
2022/07/24 05:15:21;;;;;;;11.50;5.85;;;;;;;23.79;88.46;99213.48;1722807;82;20951;-69
2022/07/24 05:17:47;;;;;;;10.25;4.65;;;;;;;24.06;83.41;99209.14;1697172;83;21012;-68
2022/07/24 05:20:14;;;;;;;11.03;4.55;;;;;;;24.37;80.93;99215.98;1697324;82;21131;-69
2022/07/24 05:22:42;;;;;;;13.38;4.50;;;;;;;24.25;80.88;99215.27;1717729;82;20950;-70
2022/07/24 05:25:09;;;;;;;12.65;4.00;;;;;;;23.95;83.41;99202.78;1719442;82;21140;-71
2022/07/24 05:27:38;;;;;;;8.18;3.72;;;;;;;23.77;84.70;99198.00;1695538;83;21105;-69
2022/07/24 05:30:07;;;;;;;9.10;4.53;;;;;;;24.02;84.44;99200.80;1719933;82;21015;-69
2022/07/24 05:32:34;;;;;;;5.55;3.25;;;;;;;23.81;86.96;99201.61;1708198;83;21053;-69
2022/07/24 05:35:01;;;;;;;9.50;4.20;;;;;;;23.67;87.53;99198.69;1677697;83;20970;-67
2022/07/24 05:37:28;;;;;;;10.82;3.80;;;;;;;23.44;90.84;99199.01;1721764;82;21241;-68
2022/07/24 05:39:55;;;;;;;5.95;3.45;;;;;;;23.30;94.23;99189.83;1730827;82;21061;-69
2022/07/24 05:42:22;;;;;;;15.08;3.87;;;;;;;23.31;96.77;99188.67;1717974;82;20915;-69
2022/07/24 05:44:49;;;;;;;10.68;3.90;;;;;;;23.38;97.34;99181.25;1718669;82;21070;-69
2022/07/24 05:47:17;;;;;;;14.05;4.03;;;;;;;23.58;95.95;99180.23;1721355;82;21043;-69
2022/07/24 05:49:43;;;;;;;16.97;4.10;;;;;;;23.94;89.27;99186.13;1720936;82;21118;-69
2022/07/24 05:52:10;;;;;;;5.70;3.10;;;;;;;24.01;85.50;99186.89;1688692;83;20943;-69
2022/07/24 05:54:37;;;;;;;8.53;3.42;;;;;;;23.88;84.51;99190.26;1683724;83;21722;-69
2022/07/24 05:57:03;;;;;;;10.88;3.87;;;;;;;24.10;84.22;99188.86;1697713;83;20987;-68
2022/07/24 05:59:31;;;;;;;22.32;5.87;;;;;;;24.67;76.55;99189.50;1706508;84;21430;-69
2022/07/24 06:01:59;;;;;;;8.33;2.85;;;;;;;25.57;73.34;99205.14;1650812;85;21163;-70
2022/07/24 06:04:26;;;;;;;6.17;2.85;;;;;;;25.33;64.14;99203.48;1654213;85;21064;-69
2022/07/24 06:06:53;;;;;;;22.03;3.77;;;;;;;25.27;65.35;99205.73;1698646;83;20896;-69
2022/07/24 06:09:20;;;;;;;7.30;2.70;;;;;;;25.88;64.32;99206.95;1700853;83;20991;-69
2022/07/24 06:11:47;;;;;;;9.00;2.80;;;;;;;26.15;59.69;99205.66;1689044;83;21054;-69
2022/07/24 06:14:15;;;;;;;3.27;2.22;;;;;;;26.11;60.17;99204.20;1703453;83;21726;-71
2022/07/24 06:16:44;;;;;;;7.15;2.80;;;;;;;26.19;60.67;99204.56;1692045;83;20985;-71
2022/07/24 06:19:12;;;;;;;14.18;2.98;;;;;;;26.22;60.02;99205.19;1707945;83;21157;-73
2022/07/24 06:21:40;;;;;;;6.97;3.00;;;;;;;26.51;58.93;99201.54;1701121;83;21540;-73
2022/07/24 06:24:08;;;;;;;5.62;2.50;;;;;;;26.40;57.45;99203.31;1694588;83;21082;-69
2022/07/24 06:26:34;;;;;;;4.00;2.58;;;;;;;26.46;58.17;99196.35;1675365;83;21897;-70
2022/07/24 06:29:01;;;;;;;5.00;2.20;;;;;;;26.46;56.44;99197.73;1689929;83;20875;-71
2022/07/24 06:31:29;;;;;;;8.68;2.70;;;;;;;26.78;57.99;99195.48;1708313;83;20868;-70
2022/07/24 06:33:55;;;;;;;7.80;2.90;;;;;;;26.86;57.69;99197.16;1694259;83;21113;-73
2022/07/24 06:36:23;;;;;;;8.28;2.62;;;;;;;26.58;57.87;99194.80;1700075;83;20922;-71
2022/07/24 06:38:50;;;;;;;4.00;2.60;;;;;;;26.54;56.53;99200.82;1698534;83;21152;-71
2022/07/24 06:41:17;;;;;;;12.98;3.05;;;;;;;26.67;57.61;99193.94;1694928;83;21014;-71
2022/07/24 06:43:44;;;;;;;2.92;2.45;;;;;;;26.46;57.00;99189.47;1696602;84;21122;-66
2022/07/24 06:46:11;;;;;;;10.40;3.10;;;;;;;26.47;58.27;99194.59;1693276;83;20970;-73
2022/07/24 06:48:38;;;;;;;8.50;2.97;;;;;;;26.23;57.26;99185.34;1691184;83;21644;-72
2022/07/24 06:51:05;;;;;;;;;;;;;;;26.45;57.66;99187.86;1704170;83;21854;-73
2022/07/24 06:53:32;;;;;;;6.47;2.95;;;;;;;26.59;57.12;99189.50;1704506;83;20099;-71
2022/07/24 06:56:00;;;;;;;5.12;3.00;;;;;;;26.71;57.60;99192.63;1704678;83;20859;-72
2022/07/24 06:58:28;;;;;;;5.75;3.27;;;;;;;26.50;58.06;99194.43;1662966;83;20961;-73
2022/07/24 07:00:55;;;;;;;4.62;3.27;;;;;;;26.00;59.77;99192.23;1704742;83;21104;-73
2022/07/24 07:03:22;;;;;;;4.20;3.08;;;;;;;25.79;61.11;99192.61;1704765;83;21245;-71
2022/07/24 07:05:49;;;;;;;9.05;3.75;;;;;;;25.81;62.60;99193.04;1684583;84;20954;-71
2022/07/24 07:08:16;;;;;;;8.47;3.37;;;;;;;26.08;61.37;99185.69;1680379;83;21120;-72
2022/07/24 07:10:43;;;;;;;8.03;4.00;;;;;;;26.13;60.93;99181.84;1704750;83;21075;-72
2022/07/24 07:13:11;;;;;;;8.48;3.60;;;;;;;26.14;60.60;99177.92;1705700;83;21846;-69
2022/07/24 07:15:37;;;;;;;5.83;3.20;;;;;;;25.88;63.22;99172.59;1704645;83;21182;-71
2022/07/24 07:18:06;;;;;;;7.50;3.40;;;;;;;26.00;63.44;99177.91;1704462;83;20914;-72
2022/07/24 07:20:33;;;;;;;24.60;4.80;;;;;;;25.74;63.60;99172.29;1704722;83;21594;-70
2022/07/24 07:22:59;;;;;;;8.73;3.40;;;;;;;25.70;66.38;99167.30;1704821;83;21406;-71
2022/07/24 07:25:26;;;;;;;4.83;4.42;;;;;;;25.94;66.70;99166.19;1704428;82;21400;-71
2022/07/24 07:27:53;;;;;;;7.73;4.87;;;;;;;25.81;65.32;99159.47;1704757;83;21151;-70
2022/07/24 07:30:21;;;;;;;11.65;4.22;;;;;;;26.01;65.71;99164.95;1704556;82;20922;-69
2022/07/24 07:32:48;;;;;;;7.08;4.70;;;;;;;26.10;64.55;99166.88;1704577;82;21120;-70
2022/07/24 07:35:15;;;;;;;7.70;4.95;;;;;;;26.17;64.08;99167.00;1704493;82;21744;-72
2022/07/24 07:37:46;;;;;;;5.92;4.10;;;;;;;26.44;64.56;99158.78;1704701;83;21504;-69
2022/07/24 07:40:14;;;;;;;9.35;4.75;;;;;;;26.90;64.10;99164.98;1704555;83;21218;-70
2022/07/24 07:42:41;;;;;;;10.93;4.87;;;;;;;27.41;63.37;99160.10;1704778;83;21413;-71
2022/07/24 07:45:09;;;;;;;7.62;4.65;;;;;;;27.99;58.79;99152.65;1704706;83;21056;-70
2022/07/24 07:47:37;;;;;;;7.12;4.75;;;;;;;28.19;57.46;99153.20;1704600;83;20926;-72
2022/07/24 07:50:05;;;;;;;7.28;4.53;;;;;;;28.36;58.35;99155.30;1705352;82;20954;-74
2022/07/24 07:52:32;;;;;;;6.78;4.40;;;;;;;28.46;57.39;99162.11;1705710;82;21895;-71
2022/07/24 07:54:59;;;;;;;9.90;4.67;;;;;;;28.08;57.79;99166.14;1704776;82;21704;-71
2022/07/24 07:57:25;;;;;;;12.35;5.47;;;;;;;27.92;60.02;99167.75;1704588;83;21033;-71
2022/07/24 07:59:52;;;;;;;10.93;4.60;;;;;;;27.77;60.37;99167.58;1704649;83;20989;-70
2022/07/24 08:02:19;;;;;;;5.55;4.45;;;;;;;27.55;64.03;99162.43;1704561;83;20878;-71
2022/07/24 08:04:46;;;;;;;5.95;4.85;;;;;;;27.80;63.29;99159.92;1704506;82;21199;-71
2022/07/24 08:07:14;;;;;;;7.10;5.25;;;;;;;28.07;62.43;99161.19;1699057;83;38496;-70
2022/07/24 08:09:41;;;;;;;6.58;5.53;;;;;;;28.02;60.46;99169.02;1704736;82;21010;-72
2022/07/24 08:12:08;;;;;;;8.65;5.28;;;;;;;27.87;60.62;99173.02;1704652;83;21025;-74
2022/07/24 08:14:37;;;;;;;5.58;5.08;;;;;;;27.64;62.50;99171.79;1704564;83;21501;-73
2022/07/24 08:17:04;;;;;;;7.65;5.58;;;;;;;27.60;62.79;99175.09;1685813;83;21218;-72
2022/07/24 08:19:33;;;;;;;7.17;6.12;;;;;;;27.54;62.71;99176.61;1704354;82;22033;-73
2022/07/24 08:21:59;;;;;;;6.70;5.53;;;;;;;27.43;63.08;99176.47;1704550;83;21548;-74
2022/07/24 08:24:27;;;;;;;6.22;5.65;;;;;;;27.22;63.98;99178.96;1705575;83;21044;-73
2022/07/24 08:26:54;;;;;;;7.28;6.15;;;;;;;26.92;64.67;99183.30;1684898;83;20870;-74
2022/07/24 08:29:21;;;;;;;10.05;6.30;;;;;;;26.66;67.44;99179.97;1704489;82;21654;-71
2022/07/24 08:31:48;;;;;;;11.40;6.17;;;;;;;26.56;70.84;99188.87;1704592;83;21057;-73
2022/07/24 08:34:15;;;;;;;7.10;6.40;;;;;;;26.40;74.42;99182.68;1704533;82;20954;-75
2022/07/24 08:36:45;;;;;;;8.88;6.42;;;;;;;26.04;78.25;99187.58;1704660;83;20974;-72
2022/07/24 08:39:15;;;;;;;7.60;6.50;;;;;;;25.69;82.87;99192.62;1704701;83;20942;-69
2022/07/24 08:41:42;;;;;;;10.75;6.33;;;;;;;25.69;84.88;99198.12;1704463;83;21112;-76
2022/07/24 08:44:09;;;;;;;;;;;;;;;25.57;86.97;99196.31;1706872;83;21112;-73
2022/07/24 08:46:38;;;;;;;8.75;6.83;;;;;;;25.51;88.14;99195.62;1705908;83;20136;-72
2022/07/24 08:49:13;;;;;;;14.80;6.55;;;;;;;25.16;91.84;99200.55;1704444;83;21150;-72
2022/07/24 08:51:43;;;;;;;6.78;6.17;;;;;;;25.05;98.85;99202.28;1686658;83;20978;-70
2022/07/24 08:54:10;;;;;;;10.35;6.65;;;;;;;25.19;99.99;99203.41;1687408;84;21251;-71
2022/07/24 08:56:40;;;;;;;9.90;7.37;;;;;;;25.24;96.73;99211.95;1685359;84;21012;-71
2022/07/24 08:59:21;;;;;;;13.00;6.67;;;;;;;25.20;98.92;99212.44;1686155;84;21104;-70
2022/07/24 09:01:48;;;;;;;7.50;6.80;;;;;;;25.21;100.00;99216.21;1687762;84;21065;-69
2022/07/24 09:04:42;;;;;;;15.83;6.55;;;;;;;25.19;100.00;99211.66;1685726;84;20970;-70
2022/07/24 09:07:17;;;;;;;8.15;6.40;;;;;;;25.07;100.00;99213.70;1687517;84;21910;-73
2022/07/24 09:09:49;;;;;;;9.25;7.12;;;;;;;25.13;100.00;99209.52;1687669;84;20930;-71
2022/07/24 09:12:17;;;;;;;8.38;5.97;;;;;;;25.10;100.00;99208.86;1686862;84;21596;-68
2022/07/24 09:14:46;;;;;;;8.53;6.75;;;;;;;24.97;100.00;99205.45;1687371;84;20961;-70
2022/07/24 09:17:16;;;;;;;15.10;6.72;;;;;;;24.81;100.00;99212.34;1687378;84;21016;-68
2022/07/24 09:19:57;;;;;;;6.15;5.50;;;;;;;24.83;100.00;99216.11;1639964;86;21392;-68
2022/07/24 09:22:35;;;;;;;6.17;5.53;;;;;;;24.63;100.00;99224.87;1623031;86;20920;-67
2022/07/24 09:25:18;;;;;;;11.22;5.97;;;;;;;24.53;100.00;99229.73;1637903;86;21451;-66
2022/07/24 09:27:51;;;;;;;6.30;5.70;;;;;;;24.55;100.00;99238.41;1691617;83;20909;-66
2022/07/24 09:30:38;;;;;;;6.50;5.58;;;;;;;24.43;100.00;99241.22;1695366;84;21376;-67
2022/07/24 09:33:14;;;;;;;7.97;6.00;;;;;;;24.37;100.00;99237.13;1617134;86;21318;-69
2022/07/24 09:35:48;;;;;;;9.63;6.37;;;;;;;24.24;100.00;99239.75;1695508;84;20885;-68
2022/07/24 09:38:18;;;;;;;7.83;6.08;;;;;;;24.29;100.00;99246.34;1694562;84;21075;-69
2022/07/24 09:40:52;;;;;;;10.98;6.47;;;;;;;24.02;100.00;99249.36;1641152;86;21446;-67
2022/07/24 09:43:25;;;;;;;10.80;6.37;;;;;;;23.88;100.00;99251.13;1638331;86;20932;-67
2022/07/24 09:45:58;;;;;;;6.85;5.60;;;;;;;23.84;100.00;99254.37;1667829;84;21508;-67
2022/07/24 09:48:34;;;;;;;5.87;4.55;;;;;;;23.73;100.00;99256.21;1685103;83;21479;-64
2022/07/24 09:51:05;;;;;;;6.30;4.75;;;;;;;23.68;100.00;99249.58;1673874;83;20914;-67
2022/07/24 09:53:33;;;;;;;5.58;5.08;;;;;;;23.41;100.00;99244.32;1663537;85;21112;-65
2022/07/24 09:56:08;;;;;;;7.60;5.03;;;;;;;23.15;100.00;99240.64;1648636;86;21017;-67
2022/07/24 09:58:39;;;;;;;9.58;5.50;;;;;;;22.99;100.00;99245.22;1642858;86;21316;-65
2022/07/24 10:01:08;;;;;;;6.30;5.28;;;;;;;22.72;100.00;99243.38;1626935;86;21127;-67
2022/07/24 10:03:38;;;;;;;6.70;5.47;;;;;;;22.49;100.00;99234.84;1642380;86;21082;-67
2022/07/24 10:06:11;;;;;;;6.95;6.03;;;;;;;22.25;100.00;99239.13;1641370;85;20926;-66
2022/07/24 10:08:42;;;;;;;7.47;6.78;;;;;;;22.01;100.00;99239.84;1638838;86;21531;-68
2022/07/24 10:11:10;;;;;;;9.88;7.00;;;;;;;21.75;100.00;99234.62;1649711;86;21124;-68
2022/07/24 10:13:36;;;;;;;7.40;6.60;;;;;;;21.64;100.00;99235.40;1631690;86;21630;-68
2022/07/24 10:16:28;;;;;;;10.93;6.92;;;;;;;21.51;100.00;99227.70;1636056;86;20910;-67
2022/07/24 10:19:04;;;;;;;7.28;6.55;;;;;;;21.45;100.00;99227.11;1625988;86;20922;-68
2022/07/24 10:21:34;;;;;;;7.33;6.62;;;;;;;21.38;100.00;99231.70;1623269;86;21006;-69
2022/07/24 10:24:13;;;;;;;8.98;6.97;;;;;;;21.33;100.00;99228.38;1639867;86;21235;-69
2022/07/24 10:26:45;;;;;;;7.50;6.28;;;;;;;21.29;100.00;99215.16;1639986;86;21530;-67
2022/07/24 10:29:14;;;;;;;7.30;6.58;;;;;;;21.26;100.00;99219.36;1649288;86;21471;-69
2022/07/24 10:31:44;;;;;;;10.38;7.75;;;;;;;21.15;100.00;99214.88;1630638;86;20898;-72
2022/07/24 10:34:50;;;;;;;10.25;7.25;;;;;;;21.01;100.00;99214.33;1648399;86;21042;-71
2022/07/24 10:37:45;;;;;;;10.45;8.28;;;;;;;20.82;100.00;99208.52;1626937;86;21051;-72
2022/07/24 10:40:48;;;;;;;14.68;8.33;;;;;;;20.56;100.00;99206.73;1633418;86;21085;-73
2022/07/24 10:43:19;;;;;;;9.35;7.67;;;;;;;20.28;100.00;99198.16;1648545;84;20954;-73
2022/07/24 10:45:56;;;;;;;9.35;7.85;;;;;;;20.13;100.00;99190.76;1648867;86;21038;-73
2022/07/24 10:48:29;;;;;;;9.80;7.83;;;;;;;19.99;100.00;99198.36;1640324;85;21141;-73
2022/07/24 10:51:09;;;;;;;9.50;8.13;;;;;;;19.99;100.00;99198.36;1671339;84;21272;-74
2022/07/24 10:53:47;;;;;;;9.23;8.35;;;;;;;19.90;100.00;99198.94;1682596;84;21131;-74
2022/07/24 10:56:19;;;;;;;8.88;7.90;;;;;;;19.83;100.00;99190.46;1686294;83;21007;-72
2022/07/24 10:59:08;;;;;;;12.47;8.60;;;;;;;19.78;100.00;99194.16;1717542;82;21005;-74
2022/07/24 11:01:47;;;;;;;10.93;9.83;;;;;;;19.78;100.00;99194.16;1669885;83;21001;-74
2022/07/24 11:04:24;;;;;;;;;;;;;;;19.72;100.00;99202.27;1689247;83;21913;-75
2022/07/24 11:07:16;;;;;;;11.33;8.85;;;;;;;19.70;100.00;99205.30;1685417;83;20695;-75
2022/07/24 11:09:59;;;;;;;9.70;8.70;;;;;;;19.70;100.00;99205.30;1661954;83;21049;-75
2022/07/24 11:12:29;;;;;;;10.78;9.75;;;;;;;19.74;100.00;99193.19;1685404;83;21614;-75
2022/07/24 11:17:52;;;;;;;16.85;10.53;;;;;;;19.70;100.00;99176.72;1714866;82;21246;-74
2022/07/24 11:20:21;;;;;;;10.48;9.25;;;;;;;19.72;100.00;99176.94;1715407;82;20926;-73
2022/07/24 11:22:54;;;;;;;10.82;9.73;;;;;;;19.66;100.00;99171.64;1714298;82;20902;-75
2022/07/24 11:25:27;;;;;;;13.13;9.15;;;;;;;19.65;100.00;99177.42;1717397;82;21630;-75
2022/07/24 11:28:10;;;;;;;11.57;9.90;;;;;;;19.66;100.00;99171.64;1718082;82;20983;-76
2022/07/24 11:30:42;;;;;;;12.30;9.80;;;;;;;19.67;100.00;99167.84;1714484;82;21583;-72
2022/07/24 11:33:15;;;;;;;10.05;9.05;;;;;;;19.67;100.00;99150.14;1700341;82;21435;-73
2022/07/24 11:35:42;;;;;;;10.63;9.63;;;;;;;19.67;100.00;99142.48;1695185;82;20937;-72
2022/07/24 11:38:09;;;;;;;11.20;10.03;;;;;;;19.62;100.00;99147.56;1714674;82;21002;-73